sensor_id;sensor_type;location;lat;lon;timestamp;P1;durP1;ratioP1;P2;durP2;ratioP2
42682;SDS011;28293;50.930;3.464;2024-03-23T00:51:03;39.72;;;23.10;;
42682;SDS011;28293;50.930;3.464;2024-03-23T00:53:29;40.67;;;22.80;;
42682;SDS011;28293;50.930;3.464;2024-03-23T00:55:56;35.83;;;22.55;;
42682;SDS011;28293;50.930;3.464;2024-03-23T00:58:21;42.83;;;23.13;;
42682;SDS011;28293;50.930;3.464;2024-03-23T01:00:47;37.35;;;22.33;;
42682;SDS011;28293;50.930;3.464;2024-03-23T01:03:13;36.40;;;22.73;;
42682;SDS011;28293;50.930;3.464;2024-03-23T01:05:38;40.83;;;22.88;;
42682;SDS011;28293;50.930;3.464;2024-03-23T01:08:04;39.45;;;21.50;;
42682;SDS011;28293;50.930;3.464;2024-03-23T01:10:30;37.13;;;21.70;;
42682;SDS011;28293;50.930;3.464;2024-03-23T01:12:56;33.20;;;20.55;;
42682;SDS011;28293;50.930;3.464;2024-03-23T01:15:21;33.35;;;20.33;;
42682;SDS011;28293;50.930;3.464;2024-03-23T01:17:47;35.90;;;19.40;;
42682;SDS011;28293;50.930;3.464;2024-03-23T01:20:12;32.70;;;19.27;;
42682;SDS011;28293;50.930;3.464;2024-03-23T01:22:38;32.30;;;18.27;;
42682;SDS011;28293;50.930;3.464;2024-03-23T01:25:04;31.17;;;18.48;;
42682;SDS011;28293;50.930;3.464;2024-03-23T01:27:29;36.92;;;18.98;;
42682;SDS011;28293;50.930;3.464;2024-03-23T01:29:55;30.65;;;17.83;;
42682;SDS011;28293;50.930;3.464;2024-03-23T01:32:21;26.70;;;16.67;;
42682;SDS011;28293;50.930;3.464;2024-03-23T01:34:46;38.55;;;18.38;;
42682;SDS011;28293;50.930;3.464;2024-03-23T01:37:12;28.20;;;15.77;;
42682;SDS011;28293;50.930;3.464;2024-03-23T01:39:38;28.77;;;17.02;;
42682;SDS011;28293;50.930;3.464;2024-03-23T01:42:03;29.00;;;16.60;;
42682;SDS011;28293;50.930;3.464;2024-03-23T01:44:29;28.77;;;17.50;;
42682;SDS011;28293;50.930;3.464;2024-03-23T01:46:55;29.65;;;16.42;;
42682;SDS011;28293;50.930;3.464;2024-03-23T01:49:20;31.02;;;18.00;;
42682;SDS011;28293;50.930;3.464;2024-03-23T01:51:46;30.77;;;18.08;;
42682;SDS011;28293;50.930;3.464;2024-03-23T01:54:12;28.40;;;18.27;;
42682;SDS011;28293;50.930;3.464;2024-03-23T01:56:38;30.77;;;19.48;;
42682;SDS011;28293;50.930;3.464;2024-03-23T01:59:03;27.30;;;17.17;;
42682;SDS011;28293;50.930;3.464;2024-03-23T02:01:30;28.60;;;18.98;;
42682;SDS011;28293;50.930;3.464;2024-03-23T02:03:56;28.00;;;18.23;;
42682;SDS011;28293;50.930;3.464;2024-03-23T02:06:22;29.33;;;18.92;;
42682;SDS011;28293;50.930;3.464;2024-03-23T02:08:49;28.90;;;17.65;;
42682;SDS011;28293;50.930;3.464;2024-03-23T02:11:14;27.20;;;18.55;;
42682;SDS011;28293;50.930;3.464;2024-03-23T02:13:40;32.13;;;18.23;;
42682;SDS011;28293;50.930;3.464;2024-03-23T02:16:06;30.65;;;17.58;;
42682;SDS011;28293;50.930;3.464;2024-03-23T02:18:32;27.08;;;17.50;;
42682;SDS011;28293;50.930;3.464;2024-03-23T02:20:58;26.80;;;18.27;;
42682;SDS011;28293;50.930;3.464;2024-03-23T02:23:24;32.55;;;17.95;;
42682;SDS011;28293;50.930;3.464;2024-03-23T02:25:50;27.85;;;18.27;;
42682;SDS011;28293;50.930;3.464;2024-03-23T02:28:16;27.25;;;16.70;;
42682;SDS011;28293;50.930;3.464;2024-03-23T02:30:42;26.05;;;16.98;;
42682;SDS011;28293;50.930;3.464;2024-03-23T02:33:08;28.58;;;17.40;;
42682;SDS011;28293;50.930;3.464;2024-03-23T02:35:33;26.65;;;17.23;;
42682;SDS011;28293;50.930;3.464;2024-03-23T02:37:59;26.85;;;17.27;;
42682;SDS011;28293;50.930;3.464;2024-03-23T02:40:25;25.40;;;16.63;;
42682;SDS011;28293;50.930;3.464;2024-03-23T02:42:51;22.95;;;16.35;;
42682;SDS011;28293;50.930;3.464;2024-03-23T02:45:17;31.70;;;16.23;;
42682;SDS011;28293;50.930;3.464;2024-03-23T02:47:43;22.67;;;15.13;;
42682;SDS011;28293;50.930;3.464;2024-03-23T02:50:09;23.05;;;14.63;;
42682;SDS011;28293;50.930;3.464;2024-03-23T02:52:35;27.15;;;14.98;;
42682;SDS011;28293;50.930;3.464;2024-03-23T02:55:01;23.92;;;14.18;;
42682;SDS011;28293;50.930;3.464;2024-03-23T02:57:27;24.33;;;13.15;;
42682;SDS011;28293;50.930;3.464;2024-03-23T02:59:53;21.45;;;12.25;;
42682;SDS011;28293;50.930;3.464;2024-03-23T03:02:19;23.95;;;13.10;;
42682;SDS011;28293;50.930;3.464;2024-03-23T03:04:46;18.88;;;12.10;;
42682;SDS011;28293;50.930;3.464;2024-03-23T03:07:11;20.20;;;11.85;;
42682;SDS011;28293;50.930;3.464;2024-03-23T03:09:37;22.70;;;12.13;;
42682;SDS011;28293;50.930;3.464;2024-03-23T03:12:04;23.38;;;13.27;;
42682;SDS011;28293;50.930;3.464;2024-03-23T03:14:33;18.55;;;11.30;;
42682;SDS011;28293;50.930;3.464;2024-03-23T03:16:59;23.88;;;12.02;;
42682;SDS011;28293;50.930;3.464;2024-03-23T03:19:25;28.35;;;12.63;;
42682;SDS011;28293;50.930;3.464;2024-03-23T03:21:51;21.85;;;11.27;;
42682;SDS011;28293;50.930;3.464;2024-03-23T03:24:17;23.83;;;12.38;;
42682;SDS011;28293;50.930;3.464;2024-03-23T03:26:42;24.60;;;11.40;;
42682;SDS011;28293;50.930;3.464;2024-03-23T03:29:08;19.10;;;11.32;;
42682;SDS011;28293;50.930;3.464;2024-03-23T03:31:34;20.00;;;10.82;;
42682;SDS011;28293;50.930;3.464;2024-03-23T03:33:59;22.67;;;10.32;;
42682;SDS011;28293;50.930;3.464;2024-03-23T03:36:25;23.08;;;9.80;;
42682;SDS011;28293;50.930;3.464;2024-03-23T03:38:51;18.58;;;9.32;;
42682;SDS011;28293;50.930;3.464;2024-03-23T03:41:17;18.20;;;8.50;;
42682;SDS011;28293;50.930;3.464;2024-03-23T03:43:43;16.05;;;7.07;;
42682;SDS011;28293;50.930;3.464;2024-03-23T03:46:09;19.80;;;6.32;;
42682;SDS011;28293;50.930;3.464;2024-03-23T03:48:36;17.10;;;5.70;;
42682;SDS011;28293;50.930;3.464;2024-03-23T03:51:02;18.05;;;6.22;;
42682;SDS011;28293;50.930;3.464;2024-03-23T03:53:28;12.38;;;4.97;;
42682;SDS011;28293;50.930;3.464;2024-03-23T03:55:54;16.38;;;5.15;;
42682;SDS011;28293;50.930;3.464;2024-03-23T03:58:19;12.90;;;4.28;;
42682;SDS011;28293;50.930;3.464;2024-03-23T04:00:45;16.80;;;4.50;;
42682;SDS011;28293;50.930;3.464;2024-03-23T04:03:11;20.92;;;4.93;;
42682;SDS011;28293;50.930;3.464;2024-03-23T04:05:36;14.07;;;4.55;;
42682;SDS011;28293;50.930;3.464;2024-03-23T04:08:03;14.32;;;4.15;;
42682;SDS011;28293;50.930;3.464;2024-03-23T04:10:29;13.38;;;3.60;;
42682;SDS011;28293;50.930;3.464;2024-03-23T04:12:55;17.88;;;4.18;;
42682;SDS011;28293;50.930;3.464;2024-03-23T04:15:21;18.08;;;4.28;;
42682;SDS011;28293;50.930;3.464;2024-03-23T04:17:46;18.33;;;4.63;;
42682;SDS011;28293;50.930;3.464;2024-03-23T04:20:12;14.45;;;3.53;;
42682;SDS011;28293;50.930;3.464;2024-03-23T04:22:41;14.60;;;4.28;;
42682;SDS011;28293;50.930;3.464;2024-03-23T04:25:08;16.42;;;4.53;;
42682;SDS011;28293;50.930;3.464;2024-03-23T04:27:35;15.48;;;4.88;;
42682;SDS011;28293;50.930;3.464;2024-03-23T04:30:02;15.50;;;4.93;;
42682;SDS011;28293;50.930;3.464;2024-03-23T04:32:34;17.20;;;5.35;;
42682;SDS011;28293;50.930;3.464;2024-03-23T04:35:00;19.30;;;6.38;;
42682;SDS011;28293;50.930;3.464;2024-03-23T04:37:26;19.95;;;5.72;;
42682;SDS011;28293;50.930;3.464;2024-03-23T04:39:52;16.60;;;4.38;;
42682;SDS011;28293;50.930;3.464;2024-03-23T04:42:17;18.83;;;5.40;;
42682;SDS011;28293;50.930;3.464;2024-03-23T04:44:43;15.13;;;4.45;;
42682;SDS011;28293;50.930;3.464;2024-03-23T04:47:09;17.27;;;5.13;;
42682;SDS011;28293;50.930;3.464;2024-03-23T04:49:36;22.15;;;5.32;;
42682;SDS011;28293;50.930;3.464;2024-03-23T04:52:02;22.05;;;5.10;;
42682;SDS011;28293;50.930;3.464;2024-03-23T04:54:29;16.10;;;6.32;;
42682;SDS011;28293;50.930;3.464;2024-03-23T04:56:55;22.55;;;7.80;;
42682;SDS011;28293;50.930;3.464;2024-03-23T04:59:21;18.77;;;8.70;;
42682;SDS011;28293;50.930;3.464;2024-03-23T05:01:46;23.30;;;10.40;;
42682;SDS011;28293;50.930;3.464;2024-03-23T05:04:12;21.58;;;9.18;;
42682;SDS011;28293;50.930;3.464;2024-03-23T05:06:38;24.17;;;9.85;;
42682;SDS011;28293;50.930;3.464;2024-03-23T05:09:03;24.02;;;9.93;;
42682;SDS011;28293;50.930;3.464;2024-03-23T05:11:35;17.45;;;8.23;;
42682;SDS011;28293;50.930;3.464;2024-03-23T05:14:01;26.33;;;7.95;;
42682;SDS011;28293;50.930;3.464;2024-03-23T05:16:28;25.02;;;9.70;;
42682;SDS011;28293;50.930;3.464;2024-03-23T05:18:53;20.17;;;9.25;;
42682;SDS011;28293;50.930;3.464;2024-03-23T05:21:19;17.58;;;7.68;;
42682;SDS011;28293;50.930;3.464;2024-03-23T05:23:44;21.23;;;7.55;;
42682;SDS011;28293;50.930;3.464;2024-03-23T05:26:10;19.10;;;6.53;;
42682;SDS011;28293;50.930;3.464;2024-03-23T05:28:36;16.80;;;5.13;;
42682;SDS011;28293;50.930;3.464;2024-03-23T05:31:01;16.45;;;5.38;;
42682;SDS011;28293;50.930;3.464;2024-03-23T05:33:27;16.08;;;5.43;;
42682;SDS011;28293;50.930;3.464;2024-03-23T05:35:59;17.98;;;5.82;;
42682;SDS011;28293;50.930;3.464;2024-03-23T05:38:26;22.60;;;6.07;;
42682;SDS011;28293;50.930;3.464;2024-03-23T05:40:56;21.40;;;6.38;;
42682;SDS011;28293;50.930;3.464;2024-03-23T05:43:22;19.67;;;5.35;;
42682;SDS011;28293;50.930;3.464;2024-03-23T05:45:54;22.73;;;5.68;;
42682;SDS011;28293;50.930;3.464;2024-03-23T05:48:21;18.13;;;4.78;;
42682;SDS011;28293;50.930;3.464;2024-03-23T05:50:47;16.63;;;5.47;;
42682;SDS011;28293;50.930;3.464;2024-03-23T05:53:14;21.55;;;6.53;;
42682;SDS011;28293;50.930;3.464;2024-03-23T05:55:40;22.10;;;6.40;;
42682;SDS011;28293;50.930;3.464;2024-03-23T05:58:06;18.17;;;5.97;;
42682;SDS011;28293;50.930;3.464;2024-03-23T06:00:32;16.98;;;5.18;;
42682;SDS011;28293;50.930;3.464;2024-03-23T06:02:57;17.50;;;5.80;;
42682;SDS011;28293;50.930;3.464;2024-03-23T06:05:23;16.63;;;5.85;;
42682;SDS011;28293;50.930;3.464;2024-03-23T06:07:49;19.55;;;6.13;;
42682;SDS011;28293;50.930;3.464;2024-03-23T06:10:15;19.27;;;6.10;;
42682;SDS011;28293;50.930;3.464;2024-03-23T06:12:40;20.80;;;5.57;;
42682;SDS011;28293;50.930;3.464;2024-03-23T06:15:06;19.38;;;6.13;;
42682;SDS011;28293;50.930;3.464;2024-03-23T06:17:38;15.38;;;5.32;;
42682;SDS011;28293;50.930;3.464;2024-03-23T06:20:04;21.15;;;5.85;;
42682;SDS011;28293;50.930;3.464;2024-03-23T06:22:33;17.63;;;5.35;;
42682;SDS011;28293;50.930;3.464;2024-03-23T06:24:59;17.98;;;5.78;;
42682;SDS011;28293;50.930;3.464;2024-03-23T06:27:25;17.83;;;6.15;;
42682;SDS011;28293;50.930;3.464;2024-03-23T06:29:50;17.98;;;6.05;;
42682;SDS011;28293;50.930;3.464;2024-03-23T06:32:16;16.35;;;4.85;;
42682;SDS011;28293;50.930;3.464;2024-03-23T06:34:42;17.17;;;5.22;;
42682;SDS011;28293;50.930;3.464;2024-03-23T06:37:07;17.80;;;5.25;;
42682;SDS011;28293;50.930;3.464;2024-03-23T06:39:35;18.17;;;5.53;;
42682;SDS011;28293;50.930;3.464;2024-03-23T06:42:01;19.88;;;5.28;;
42682;SDS011;28293;50.930;3.464;2024-03-23T06:44:27;15.73;;;4.38;;
42682;SDS011;28293;50.930;3.464;2024-03-23T06:46:53;15.13;;;4.43;;
42682;SDS011;28293;50.930;3.464;2024-03-23T06:49:18;13.38;;;4.22;;
42682;SDS011;28293;50.930;3.464;2024-03-23T06:51:44;15.82;;;4.07;;
42682;SDS011;28293;50.930;3.464;2024-03-23T06:54:10;15.07;;;4.60;;
42682;SDS011;28293;50.930;3.464;2024-03-23T06:56:36;15.77;;;4.47;;
42682;SDS011;28293;50.930;3.464;2024-03-23T06:59:01;15.80;;;4.97;;
42682;SDS011;28293;50.930;3.464;2024-03-23T07:01:27;16.92;;;4.97;;
42682;SDS011;28293;50.930;3.464;2024-03-23T07:03:54;13.45;;;4.95;;
42682;SDS011;28293;50.930;3.464;2024-03-23T07:06:19;17.95;;;5.43;;
42682;SDS011;28293;50.930;3.464;2024-03-23T07:08:45;15.32;;;4.60;;
42682;SDS011;28293;50.930;3.464;2024-03-23T07:11:11;17.23;;;5.20;;
42682;SDS011;28293;50.930;3.464;2024-03-23T07:13:36;17.30;;;4.78;;
42682;SDS011;28293;50.930;3.464;2024-03-23T07:16:02;18.02;;;5.70;;
42682;SDS011;28293;50.930;3.464;2024-03-23T07:18:28;14.80;;;5.00;;
42682;SDS011;28293;50.930;3.464;2024-03-23T07:20:56;14.23;;;4.88;;
42682;SDS011;28293;50.930;3.464;2024-03-23T07:23:23;17.52;;;5.70;;
42682;SDS011;28293;50.930;3.464;2024-03-23T07:25:58;15.18;;;4.20;;
42682;SDS011;28293;50.930;3.464;2024-03-23T07:28:25;14.25;;;4.03;;
42682;SDS011;28293;50.930;3.464;2024-03-23T07:31:03;12.65;;;3.75;;
42682;SDS011;28293;50.930;3.464;2024-03-23T07:33:34;18.30;;;4.82;;
42682;SDS011;28293;50.930;3.464;2024-03-23T07:36:00;18.05;;;5.10;;
42682;SDS011;28293;50.930;3.464;2024-03-23T07:38:27;13.43;;;4.47;;
42682;SDS011;28293;50.930;3.464;2024-03-23T07:41:15;19.80;;;5.03;;
42682;SDS011;28293;50.930;3.464;2024-03-23T07:43:42;14.95;;;5.13;;
42682;SDS011;28293;50.930;3.464;2024-03-23T07:46:08;16.25;;;5.75;;
42682;SDS011;28293;50.930;3.464;2024-03-23T07:48:33;13.00;;;4.93;;
42682;SDS011;28293;50.930;3.464;2024-03-23T07:51:06;12.13;;;4.43;;
42682;SDS011;28293;50.930;3.464;2024-03-23T07:53:36;13.57;;;4.80;;
42682;SDS011;28293;50.930;3.464;2024-03-23T07:56:06;16.65;;;4.35;;
42682;SDS011;28293;50.930;3.464;2024-03-23T07:58:33;12.93;;;4.15;;
42682;SDS011;28293;50.930;3.464;2024-03-23T08:01:05;13.35;;;4.07;;
42682;SDS011;28293;50.930;3.464;2024-03-23T08:03:36;16.50;;;5.25;;
42682;SDS011;28293;50.930;3.464;2024-03-23T08:06:12;11.13;;;3.22;;
42682;SDS011;28293;50.930;3.464;2024-03-23T08:08:39;15.35;;;4.50;;
42682;SDS011;28293;50.930;3.464;2024-03-23T08:11:06;13.02;;;3.35;;
42682;SDS011;28293;50.930;3.464;2024-03-23T08:13:33;13.43;;;3.35;;
42682;SDS011;28293;50.930;3.464;2024-03-23T08:15:59;13.73;;;3.90;;
42682;SDS011;28293;50.930;3.464;2024-03-23T08:18:26;14.35;;;3.67;;
42682;SDS011;28293;50.930;3.464;2024-03-23T08:20:58;16.85;;;3.85;;
42682;SDS011;28293;50.930;3.464;2024-03-23T08:23:25;14.45;;;4.82;;
42682;SDS011;28293;50.930;3.464;2024-03-23T08:25:59;12.43;;;3.75;;
42682;SDS011;28293;50.930;3.464;2024-03-23T08:28:34;10.85;;;4.15;;
42682;SDS011;28293;50.930;3.464;2024-03-23T08:31:01;11.00;;;3.20;;
42682;SDS011;28293;50.930;3.464;2024-03-23T08:33:28;14.13;;;3.45;;
42682;SDS011;28293;50.930;3.464;2024-03-23T08:35:56;16.73;;;3.40;;
42682;SDS011;28293;50.930;3.464;2024-03-23T08:38:22;14.88;;;3.30;;
42682;SDS011;28293;50.930;3.464;2024-03-23T08:40:56;16.00;;;4.10;;
42682;SDS011;28293;50.930;3.464;2024-03-23T08:43:32;10.30;;;3.67;;
42682;SDS011;28293;50.930;3.464;2024-03-23T08:46:07;13.00;;;4.07;;
42682;SDS011;28293;50.930;3.464;2024-03-23T08:48:37;13.43;;;4.47;;
42682;SDS011;28293;50.930;3.464;2024-03-23T08:51:08;14.43;;;4.28;;
42682;SDS011;28293;50.930;3.464;2024-03-23T08:53:35;14.15;;;4.85;;
42682;SDS011;28293;50.930;3.464;2024-03-23T08:56:01;13.10;;;5.07;;
42682;SDS011;28293;50.930;3.464;2024-03-23T08:58:28;16.65;;;4.68;;
42682;SDS011;28293;50.930;3.464;2024-03-23T09:00:55;17.55;;;5.43;;
42682;SDS011;28293;50.930;3.464;2024-03-23T09:03:22;13.32;;;5.13;;
42682;SDS011;28293;50.930;3.464;2024-03-23T09:05:48;16.92;;;5.07;;
42682;SDS011;28293;50.930;3.464;2024-03-23T09:08:14;14.43;;;5.68;;
42682;SDS011;28293;50.930;3.464;2024-03-23T09:10:40;14.43;;;5.90;;
42682;SDS011;28293;50.930;3.464;2024-03-23T09:13:07;15.45;;;4.85;;
42682;SDS011;28293;50.930;3.464;2024-03-23T09:15:36;14.88;;;5.05;;
42682;SDS011;28293;50.930;3.464;2024-03-23T09:18:10;12.50;;;5.38;;
42682;SDS011;28293;50.930;3.464;2024-03-23T09:20:36;10.32;;;4.82;;
42682;SDS011;28293;50.930;3.464;2024-03-23T09:23:01;11.85;;;5.32;;
42682;SDS011;28293;50.930;3.464;2024-03-23T09:25:27;17.15;;;5.72;;
42682;SDS011;28293;50.930;3.464;2024-03-23T09:27:53;15.40;;;5.40;;
42682;SDS011;28293;50.930;3.464;2024-03-23T09:30:18;12.65;;;5.20;;
42682;SDS011;28293;50.930;3.464;2024-03-23T09:32:44;14.43;;;5.65;;
42682;SDS011;28293;50.930;3.464;2024-03-23T09:35:11;14.07;;;5.38;;
42682;SDS011;28293;50.930;3.464;2024-03-23T09:37:37;15.20;;;6.70;;
42682;SDS011;28293;50.930;3.464;2024-03-23T09:40:09;15.40;;;6.03;;
42682;SDS011;28293;50.930;3.464;2024-03-23T09:42:36;13.70;;;5.82;;
42682;SDS011;28293;50.930;3.464;2024-03-23T09:45:02;13.88;;;5.90;;
42682;SDS011;28293;50.930;3.464;2024-03-23T09:47:32;17.83;;;5.38;;
42682;SDS011;28293;50.930;3.464;2024-03-23T09:49:58;11.93;;;5.32;;
42682;SDS011;28293;50.930;3.464;2024-03-23T09:52:25;12.00;;;5.03;;
42682;SDS011;28293;50.930;3.464;2024-03-23T09:54:50;15.95;;;4.85;;
42682;SDS011;28293;50.930;3.464;2024-03-23T09:57:16;12.93;;;4.32;;
42682;SDS011;28293;50.930;3.464;2024-03-23T09:59:44;14.45;;;3.72;;
42682;SDS011;28293;50.930;3.464;2024-03-23T10:02:10;9.05;;;3.80;;
42682;SDS011;28293;50.930;3.464;2024-03-23T10:04:38;10.18;;;3.70;;
42682;SDS011;28293;50.930;3.464;2024-03-23T10:07:11;11.23;;;3.60;;
42682;SDS011;28293;50.930;3.464;2024-03-23T10:09:38;12.10;;;3.78;;
42682;SDS011;28293;50.930;3.464;2024-03-23T10:12:07;15.15;;;3.95;;
42682;SDS011;28293;50.930;3.464;2024-03-23T10:14:38;10.50;;;3.63;;
42682;SDS011;28293;50.930;3.464;2024-03-23T10:19:46;9.48;;;3.33;;
42682;SDS011;28293;50.930;3.464;2024-03-23T10:22:14;11.52;;;3.50;;
42682;SDS011;28293;50.930;3.464;2024-03-23T10:24:44;12.88;;;2.92;;
42682;SDS011;28293;50.930;3.464;2024-03-23T10:27:14;8.07;;;2.55;;
42682;SDS011;28293;50.930;3.464;2024-03-23T10:29:43;14.10;;;3.22;;
42682;SDS011;28293;50.930;3.464;2024-03-23T10:32:10;10.68;;;2.97;;
42682;SDS011;28293;50.930;3.464;2024-03-23T10:34:37;11.40;;;3.33;;
42682;SDS011;28293;50.930;3.464;2024-03-23T10:37:03;13.32;;;3.42;;
42682;SDS011;28293;50.930;3.464;2024-03-23T10:39:33;10.05;;;2.40;;
42682;SDS011;28293;50.930;3.464;2024-03-23T10:42:02;11.57;;;3.08;;
42682;SDS011;28293;50.930;3.464;2024-03-23T10:44:29;12.65;;;2.83;;
42682;SDS011;28293;50.930;3.464;2024-03-23T10:46:56;11.27;;;3.40;;
42682;SDS011;28293;50.930;3.464;2024-03-23T10:49:28;9.98;;;3.50;;
42682;SDS011;28293;50.930;3.464;2024-03-23T10:51:58;10.55;;;2.63;;
42682;SDS011;28293;50.930;3.464;2024-03-23T10:54:25;9.73;;;2.47;;
42682;SDS011;28293;50.930;3.464;2024-03-23T10:57:38;9.43;;;2.80;;
42682;SDS011;28293;50.930;3.464;2024-03-23T10:59:42;13.05;;;3.10;;
42682;SDS011;28293;50.930;3.464;2024-03-23T11:02:18;10.50;;;2.28;;
42682;SDS011;28293;50.930;3.464;2024-03-23T11:04:44;8.80;;;2.50;;
42682;SDS011;28293;50.930;3.464;2024-03-23T11:09:57;11.73;;;2.55;;
42682;SDS011;28293;50.930;3.464;2024-03-23T11:14:53;16.58;;;3.70;;
42682;SDS011;28293;50.930;3.464;2024-03-23T11:17:39;10.43;;;3.33;;
42682;SDS011;28293;50.930;3.464;2024-03-23T11:20:05;8.32;;;3.72;;
42682;SDS011;28293;50.930;3.464;2024-03-23T11:25:39;13.30;;;3.92;;
42682;SDS011;28293;50.930;3.464;2024-03-23T11:28:10;13.88;;;4.55;;
42682;SDS011;28293;50.930;3.464;2024-03-23T11:30:36;16.08;;;4.30;;
42682;SDS011;28293;50.930;3.464;2024-03-23T11:33:05;10.85;;;3.40;;
42682;SDS011;28293;50.930;3.464;2024-03-23T11:38:19;12.23;;;4.78;;
42682;SDS011;28293;50.930;3.464;2024-03-23T11:40:44;14.27;;;3.70;;
42682;SDS011;28293;50.930;3.464;2024-03-23T11:43:18;10.07;;;2.50;;
42682;SDS011;28293;50.930;3.464;2024-03-23T11:45:50;7.78;;;2.08;;
42682;SDS011;28293;50.930;3.464;2024-03-23T11:48:20;12.48;;;2.47;;
42682;SDS011;28293;50.930;3.464;2024-03-23T11:50:48;8.55;;;2.63;;
42682;SDS011;28293;50.930;3.464;2024-03-23T11:53:16;10.70;;;2.42;;
42682;SDS011;28293;50.930;3.464;2024-03-23T11:58:24;8.80;;;2.22;;
42682;SDS011;28293;50.930;3.464;2024-03-23T12:00:51;9.38;;;2.30;;
42682;SDS011;28293;50.930;3.464;2024-03-23T12:03:18;8.07;;;2.15;;
42682;SDS011;28293;50.930;3.464;2024-03-23T12:05:48;8.90;;;2.58;;
42682;SDS011;28293;50.930;3.464;2024-03-23T12:08:24;10.50;;;2.17;;
42682;SDS011;28293;50.930;3.464;2024-03-23T12:13:51;8.20;;;1.92;;
42682;SDS011;28293;50.930;3.464;2024-03-23T12:16:18;7.90;;;2.28;;
42682;SDS011;28293;50.930;3.464;2024-03-23T12:18:48;7.10;;;2.10;;
42682;SDS011;28293;50.930;3.464;2024-03-23T12:21:15;9.52;;;2.67;;
42682;SDS011;28293;50.930;3.464;2024-03-23T12:23:41;6.63;;;2.03;;
42682;SDS011;28293;50.930;3.464;2024-03-23T12:26:09;12.48;;;2.72;;
42682;SDS011;28293;50.930;3.464;2024-03-23T12:28:37;9.25;;;2.50;;
42682;SDS011;28293;50.930;3.464;2024-03-23T12:31:02;7.90;;;2.08;;
42682;SDS011;28293;50.930;3.464;2024-03-23T12:33:29;6.35;;;1.73;;
42682;SDS011;28293;50.930;3.464;2024-03-23T12:35:55;6.47;;;1.90;;
42682;SDS011;28293;50.930;3.464;2024-03-23T12:38:20;9.82;;;2.20;;
42682;SDS011;28293;50.930;3.464;2024-03-23T12:40:46;7.88;;;2.08;;
42682;SDS011;28293;50.930;3.464;2024-03-23T12:43:13;8.25;;;2.25;;
42682;SDS011;28293;50.930;3.464;2024-03-23T12:45:39;8.65;;;2.67;;
42682;SDS011;28293;50.930;3.464;2024-03-23T12:48:04;7.75;;;2.28;;
42682;SDS011;28293;50.930;3.464;2024-03-23T12:50:30;6.13;;;2.38;;
42682;SDS011;28293;50.930;3.464;2024-03-23T12:52:56;6.05;;;2.17;;
42682;SDS011;28293;50.930;3.464;2024-03-23T12:55:22;8.93;;;2.33;;
42682;SDS011;28293;50.930;3.464;2024-03-23T12:57:47;8.07;;;2.22;;
42682;SDS011;28293;50.930;3.464;2024-03-23T13:00:13;7.93;;;2.30;;
42682;SDS011;28293;50.930;3.464;2024-03-23T13:02:40;6.60;;;2.20;;
42682;SDS011;28293;50.930;3.464;2024-03-23T13:05:06;9.27;;;2.60;;
42682;SDS011;28293;50.930;3.464;2024-03-23T13:07:33;8.98;;;2.85;;
42682;SDS011;28293;50.930;3.464;2024-03-23T13:10:00;8.88;;;2.20;;
42682;SDS011;28293;50.930;3.464;2024-03-23T13:12:26;10.32;;;1.98;;
42682;SDS011;28293;50.930;3.464;2024-03-23T13:14:51;10.57;;;2.28;;
42682;SDS011;28293;50.930;3.464;2024-03-23T13:17:17;8.73;;;2.13;;
42682;SDS011;28293;50.930;3.464;2024-03-23T13:19:43;6.75;;;2.25;;
42682;SDS011;28293;50.930;3.464;2024-03-23T13:22:09;8.93;;;2.45;;
42682;SDS011;28293;50.930;3.464;2024-03-23T13:24:36;5.60;;;1.80;;
42682;SDS011;28293;50.930;3.464;2024-03-23T13:27:02;9.30;;;2.28;;
42682;SDS011;28293;50.930;3.464;2024-03-23T13:29:30;7.00;;;2.45;;
42682;SDS011;28293;50.930;3.464;2024-03-23T13:31:56;9.07;;;2.53;;
42682;SDS011;28293;50.930;3.464;2024-03-23T13:34:21;7.85;;;2.30;;
42682;SDS011;28293;50.930;3.464;2024-03-23T13:36:47;8.50;;;2.30;;
42682;SDS011;28293;50.930;3.464;2024-03-23T13:39:13;7.50;;;2.40;;
42682;SDS011;28293;50.930;3.464;2024-03-23T13:41:41;10.88;;;3.58;;
42682;SDS011;28293;50.930;3.464;2024-03-23T13:44:08;10.88;;;2.60;;
42682;SDS011;28293;50.930;3.464;2024-03-23T13:46:35;7.68;;;2.22;;
42682;SDS011;28293;50.930;3.464;2024-03-23T13:49:01;7.35;;;2.17;;
42682;SDS011;28293;50.930;3.464;2024-03-23T13:51:28;9.13;;;2.63;;
42682;SDS011;28293;50.930;3.464;2024-03-23T13:53:54;8.15;;;3.15;;
42682;SDS011;28293;50.930;3.464;2024-03-23T13:56:21;9.70;;;3.03;;
42682;SDS011;28293;50.930;3.464;2024-03-23T13:58:47;11.50;;;3.28;;
42682;SDS011;28293;50.930;3.464;2024-03-23T14:01:13;12.38;;;2.85;;
42682;SDS011;28293;50.930;3.464;2024-03-23T14:03:39;10.80;;;2.63;;
42682;SDS011;28293;50.930;3.464;2024-03-23T14:06:06;9.73;;;3.15;;
42682;SDS011;28293;50.930;3.464;2024-03-23T14:08:32;10.10;;;2.88;;
42682;SDS011;28293;50.930;3.464;2024-03-23T14:11:04;10.13;;;2.60;;
42682;SDS011;28293;50.930;3.464;2024-03-23T14:13:30;10.18;;;2.60;;
42682;SDS011;28293;50.930;3.464;2024-03-23T14:15:56;10.50;;;2.40;;
42682;SDS011;28293;50.930;3.464;2024-03-23T14:18:22;8.80;;;2.60;;
42682;SDS011;28293;50.930;3.464;2024-03-23T14:20:49;10.00;;;2.40;;
42682;SDS011;28293;50.930;3.464;2024-03-23T14:23:15;7.82;;;2.55;;
42682;SDS011;28293;50.930;3.464;2024-03-23T14:25:41;11.27;;;2.50;;
42682;SDS011;28293;50.930;3.464;2024-03-23T14:28:07;12.05;;;3.13;;
42682;SDS011;28293;50.930;3.464;2024-03-23T14:30:39;10.60;;;2.85;;
42682;SDS011;28293;50.930;3.464;2024-03-23T14:33:05;7.75;;;2.97;;
42682;SDS011;28293;50.930;3.464;2024-03-23T14:35:31;8.38;;;2.22;;
42682;SDS011;28293;50.930;3.464;2024-03-23T14:37:58;8.68;;;2.53;;
42682;SDS011;28293;50.930;3.464;2024-03-23T14:40:24;12.35;;;2.67;;
42682;SDS011;28293;50.930;3.464;2024-03-23T14:42:52;10.05;;;2.58;;
42682;SDS011;28293;50.930;3.464;2024-03-23T14:45:19;11.82;;;2.97;;
42682;SDS011;28293;50.930;3.464;2024-03-23T14:47:45;8.80;;;2.17;;
42682;SDS011;28293;50.930;3.464;2024-03-23T14:50:11;7.00;;;2.10;;
42682;SDS011;28293;50.930;3.464;2024-03-23T14:52:40;7.70;;;2.20;;
42682;SDS011;28293;50.930;3.464;2024-03-23T14:55:10;8.25;;;2.40;;
42682;SDS011;28293;50.930;3.464;2024-03-23T14:57:36;7.18;;;2.10;;
42682;SDS011;28293;50.930;3.464;2024-03-23T15:00:02;6.45;;;2.20;;
42682;SDS011;28293;50.930;3.464;2024-03-23T15:02:30;8.13;;;2.40;;
42682;SDS011;28293;50.930;3.464;2024-03-23T15:04:56;10.63;;;2.85;;
42682;SDS011;28293;50.930;3.464;2024-03-23T15:07:23;10.60;;;2.65;;
42682;SDS011;28293;50.930;3.464;2024-03-23T15:09:48;12.38;;;2.72;;
42682;SDS011;28293;50.930;3.464;2024-03-23T15:12:14;7.70;;;2.10;;
42682;SDS011;28293;50.930;3.464;2024-03-23T15:14:40;8.35;;;2.20;;
42682;SDS011;28293;50.930;3.464;2024-03-23T15:17:05;8.27;;;2.25;;
42682;SDS011;28293;50.930;3.464;2024-03-23T15:19:32;10.25;;;2.45;;
42682;SDS011;28293;50.930;3.464;2024-03-23T15:21:58;7.18;;;2.20;;
42682;SDS011;28293;50.930;3.464;2024-03-23T15:24:24;8.32;;;2.13;;
42682;SDS011;28293;50.930;3.464;2024-03-23T15:26:50;8.35;;;3.00;;
42682;SDS011;28293;50.930;3.464;2024-03-23T15:29:17;8.32;;;2.50;;
42682;SDS011;28293;50.930;3.464;2024-03-23T15:31:43;9.25;;;2.42;;
42682;SDS011;28293;50.930;3.464;2024-03-23T15:34:10;8.20;;;2.20;;
42682;SDS011;28293;50.930;3.464;2024-03-23T15:36:39;10.80;;;3.13;;
42682;SDS011;28293;50.930;3.464;2024-03-23T15:39:05;11.20;;;2.97;;
42682;SDS011;28293;50.930;3.464;2024-03-23T15:41:31;15.07;;;2.55;;
42682;SDS011;28293;50.930;3.464;2024-03-23T15:43:59;9.63;;;2.60;;